Time;durP1;ratioP1;P1;durP2;ratioP2;P2;SDS_P1;SDS_P2;PMS_P1;PMS_P2;Temp;Humidity;BMP_temperature;BMP_pressure;BME280_temperature;BME280_humidity;BME280_pressure;Samples;Min_cycle;Max_cycle;Signal;HPM_P1;HPM_P2
2023/04/16 00:00:37;;;;;;;1.20;1.10;;;19.30;44.10;;;;;;5016434;28;20548;-61
2023/04/16 00:03:03;;;;;;;0.80;0.80;;;19.30;44.10;;;;;;5014455;28;20757;-61
2023/04/16 00:05:28;;;;;;;1.10;1.00;;;19.30;44.10;;;;;;5014831;28;20210;-61
2023/04/16 00:07:54;;;;;;;1.10;1.00;;;19.20;44.00;;;;;;5017726;28;20225;-60
2023/04/16 00:10:20;;;;;;;1.37;1.27;;;19.20;44.00;;;;;;5017445;28;20219;-62
2023/04/16 00:12:45;;;;;;;1.10;1.00;;;19.20;44.00;;;;;;5016190;28;22631;-62
2023/04/16 00:15:11;;;;;;;1.13;1.03;;;19.20;44.00;;;;;;5017818;28;20219;-61
2023/04/16 00:17:36;;;;;;;1.03;1.03;;;19.30;44.10;;;;;;5015563;28;20268;-60
2023/04/16 00:20:02;;;;;;;1.47;1.37;;;19.20;43.90;;;;;;5017301;28;20233;-61
2023/04/16 00:22:27;;;;;;;1.10;1.00;;;19.20;44.00;;;;;;5017749;28;20282;-62
2023/04/16 00:24:53;;;;;;;1.10;1.00;;;19.20;44.00;;;;;;5015901;28;20737;-61
2023/04/16 00:27:19;;;;;;;1.00;0.90;;;19.20;44.00;;;;;;5013687;28;20322;-64
2023/04/16 00:29:44;;;;;;;1.00;0.90;;;19.20;44.50;;;;;;5021507;28;20269;-61
2023/04/16 00:32:10;;;;;;;1.17;1.07;;;19.20;44.00;;;;;;5014356;28;20231;-60
2023/04/16 00:34:35;;;;;;;1.30;1.20;;;19.20;44.00;;;;;;5019509;28;20243;-61
2023/04/16 00:37:01;;;;;;;1.10;1.00;;;19.20;44.00;;;;;;5014979;28;20219;-61
2023/04/16 00:39:26;;;;;;;1.27;1.17;;;19.20;44.00;;;;;;5015365;28;20306;-65
2023/04/16 00:41:52;;;;;;;2.70;1.00;;;19.20;44.00;;;;;;5015816;28;20226;-60
2023/04/16 00:44:17;;;;;;;0.93;0.93;;;19.20;44.00;;;;;;5017216;28;20226;-60
2023/04/16 00:46:44;;;;;;;1.40;1.30;;;19.20;44.00;;;;;;5020090;28;20288;-62
2023/04/16 00:49:09;;;;;;;1.20;1.10;;;19.20;44.00;;;;;;5017202;28;20326;-61
2023/04/16 00:51:35;;;;;;;1.10;1.00;;;19.20;44.00;;;;;;5015272;28;20867;-61
2023/04/16 00:54:02;;;;;;;1.87;1.00;;;19.20;43.90;;;;;;5013849;28;20230;-60
2023/04/16 00:56:28;;;;;;;0.90;0.90;;;19.20;44.00;;;;;;5017398;28;20492;-62
2023/04/16 00:58:55;;;;;;;1.27;1.17;;;19.20;43.90;;;;;;5011968;28;20422;-60
2023/04/16 01:01:21;;;;;;;1.13;1.03;;;19.20;44.00;;;;;;5012837;28;20226;-61
2023/04/16 01:03:48;;;;;;;1.30;1.20;;;19.20;44.00;;;;;;5018858;28;20437;-61
2023/04/16 01:06:16;;;;;;;1.20;1.00;;;19.20;43.90;;;;;;5019875;28;20656;-60
2023/04/16 01:08:42;;;;;;;1.30;1.20;;;19.20;44.00;;;;;;5012422;28;20470;-60
2023/04/16 01:11:09;;;;;;;1.20;1.10;;;19.20;43.90;;;;;;5017005;28;20436;-62
2023/04/16 01:13:38;;;;;;;1.00;0.90;;;19.20;44.00;;;;;;5014147;28;20476;-60
2023/04/16 01:16:07;;;;;;;1.10;1.00;;;19.20;43.90;;;;;;5015831;28;20828;-63
2023/04/16 01:18:33;;;;;;;1.10;1.00;;;19.20;44.00;;;;;;5010161;28;20433;-62
2023/04/16 01:20:59;;;;;;;0.97;0.87;;;19.20;44.00;;;;;;5017238;28;20443;-60
2023/04/16 01:23:25;;;;;;;1.10;1.00;;;19.20;44.00;;;;;;5019982;28;20493;-62
2023/04/16 01:25:51;;;;;;;1.40;1.30;;;19.20;44.00;;;;;;5020519;28;20695;-62
2023/04/16 01:28:16;;;;;;;1.57;0.90;;;19.20;43.90;;;;;;5011515;28;20219;-60
2023/04/16 01:30:42;;;;;;;1.10;1.00;;;19.20;44.80;;;;;;5017922;28;20222;-60
2023/04/16 01:33:11;;;;;;;0.90;0.90;;;19.20;44.00;;;;;;5017633;28;20246;-66
2023/04/16 01:35:37;;;;;;;1.17;1.07;;;19.20;44.00;;;;;;5015138;28;20218;-62
2023/04/16 01:38:04;;;;;;;1.20;1.10;;;19.20;44.00;;;;;;5015750;28;20470;-61
2023/04/16 01:40:30;;;;;;;1.20;1.10;;;19.20;43.90;;;;;;5015522;28;20522;-61
2023/04/16 01:42:56;;;;;;;1.20;1.10;;;19.20;44.00;;;;;;5015555;28;20510;-61
2023/04/16 01:45:21;;;;;;;1.10;1.00;;;19.20;44.00;;;;;;5016083;28;20233;-61
2023/04/16 01:47:49;;;;;;;1.30;0.90;;;19.20;44.00;;;;;;5018595;28;20254;-64
2023/04/16 01:50:16;;;;;;;1.30;1.20;;;19.20;44.00;;;;;;5016096;28;20297;-62
2023/04/16 01:52:42;;;;;;;1.13;1.03;;;19.20;44.00;;;;;;5016986;28;20911;-61
2023/04/16 01:55:08;;;;;;;1.10;1.00;;;19.20;44.00;;;;;;5017458;28;20560;-60
2023/04/16 01:57:33;;;;;;;1.30;1.20;;;19.20;44.00;;;;;;5019491;28;20218;-61
2023/04/16 01:59:59;;;;;;;1.13;1.03;;;19.20;44.00;;;;;;5019395;28;20428;-61
2023/04/16 02:02:26;;;;;;;1.20;1.10;;;19.20;44.00;;;;;;5014966;28;20241;-60
2023/04/16 02:04:52;;;;;;;1.40;1.30;;;19.20;44.00;;;;;;5018185;28;20230;-61
2023/04/16 02:07:18;;;;;;;1.00;1.00;;;19.10;43.90;;;;;;5014622;28;20418;-61
2023/04/16 02:09:43;;;;;;;0.90;0.90;;;19.10;43.90;;;;;;5016509;28;20223;-62
2023/04/16 02:12:10;;;;;;;1.03;0.93;;;19.20;44.00;;;;;;5020380;28;20296;-62
2023/04/16 02:14:36;;;;;;;0.90;0.90;;;19.20;44.00;;;;;;5021341;28;20676;-62
2023/04/16 02:17:01;;;;;;;1.10;1.00;;;19.20;44.00;;;;;;5022011;28;20476;-60
2023/04/16 02:19:27;;;;;;;1.20;1.10;;;19.10;43.90;;;;;;5024332;28;20222;-65
2023/04/16 02:21:53;;;;;;;0.90;0.90;;;19.10;43.90;;;;;;5022269;28;20967;-61
2023/04/16 02:24:19;;;;;;;1.43;1.33;;;19.10;43.90;;;;;;5017484;28;20252;-61
2023/04/16 02:26:45;;;;;;;1.50;1.40;;;19.10;43.90;;;;;;5016247;28;20454;-61
2023/04/16 02:29:11;;;;;;;1.30;1.20;;;19.10;44.00;;;;;;5020408;28;20979;-60
2023/04/16 02:31:37;;;;;;;1.00;0.90;;;19.10;43.90;;;;;;5020229;28;20231;-61
2023/04/16 02:34:03;;;;;;;1.10;1.00;;;19.10;43.90;;;;;;5019016;28;20310;-64
2023/04/16 02:36:28;;;;;;;1.27;1.17;;;19.10;43.90;;;;;;5019293;28;20438;-60
2023/04/16 02:38:54;;;;;;;1.43;0.90;;;19.10;43.90;;;;;;5022405;28;20488;-61
2023/04/16 02:41:19;;;;;;;1.20;1.10;;;19.10;43.90;;;;;;5019910;28;20273;-62
2023/04/16 02:43:45;;;;;;;1.20;1.10;;;19.10;43.90;;;;;;5014646;28;20223;-62
2023/04/16 02:46:11;;;;;;;1.30;1.20;;;19.10;43.90;;;;;;5020673;28;21431;-61
2023/04/16 02:48:36;;;;;;;1.30;1.10;;;19.10;43.90;;;;;;5020413;28;20222;-61
2023/04/16 02:51:02;;;;;;;0.90;0.90;;;19.10;43.90;;;;;;5023244;28;20226;-61
2023/04/16 02:53:27;;;;;;;1.20;1.10;;;19.10;43.90;;;;;;5016108;28;20218;-60
2023/04/16 02:55:54;;;;;;;1.10;1.00;;;19.10;43.90;;;;;;5018432;28;20300;-61
2023/04/16 02:58:21;;;;;;;1.20;1.10;;;19.10;43.90;;;;;;5017565;28;20226;-60
2023/04/16 03:00:47;;;;;;;1.20;1.10;;;19.10;43.80;;;;;;5015462;28;20439;-60
2023/04/16 03:03:12;;;;;;;1.00;0.90;;;19.10;43.90;;;;;;5019312;28;20828;-60
2023/04/16 03:05:38;;;;;;;1.10;1.00;;;19.10;43.90;;;;;;5017265;28;20304;-61
2023/04/16 03:08:04;;;;;;;1.30;1.20;;;19.10;43.90;;;;;;5015239;28;20273;-62
2023/04/16 03:10:29;;;;;;;1.40;1.30;;;19.10;43.90;;;;;;5018874;28;20219;-64
2023/04/16 03:12:55;;;;;;;1.13;1.03;;;19.10;43.90;;;;;;5018734;28;20234;-61
2023/04/16 03:15:20;;;;;;;1.20;1.10;;;19.10;43.90;;;;;;5019334;28;21169;-61
2023/04/16 03:17:46;;;;;;;0.80;0.80;;;19.10;43.90;;;;;;5014191;28;20273;-61
2023/04/16 03:20:13;;;;;;;1.20;1.10;;;19.10;43.90;;;;;;5015521;28;20230;-62
2023/04/16 03:22:39;;;;;;;1.30;1.20;;;19.10;43.90;;;;;;5016200;28;20729;-64
2023/04/16 03:25:05;;;;;;;1.30;1.20;;;19.10;43.90;;;;;;5015089;28;20447;-66
2023/04/16 03:27:31;;;;;;;1.00;0.90;;;19.10;43.90;;;;;;5015130;28;20492;-62
2023/04/16 03:29:57;;;;;;;1.10;1.00;;;19.10;43.90;;;;;;5021344;28;20435;-60
2023/04/16 03:32:22;;;;;;;2.17;1.20;;;19.10;43.80;;;;;;5014903;28;20490;-62
2023/04/16 03:34:48;;;;;;;1.20;1.10;;;19.10;43.90;;;;;;5015421;28;20674;-62
2023/04/16 03:37:13;;;;;;;1.30;1.20;;;19.10;43.90;;;;;;5012557;28;21053;-63
2023/04/16 03:39:39;;;;;;;1.20;1.10;;;19.10;43.90;;;;;;5016897;28;20305;-61
2023/04/16 03:42:05;;;;;;;1.30;1.20;;;19.10;43.90;;;;;;5016693;28;20219;-61
2023/04/16 03:44:30;;;;;;;1.20;1.10;;;19.10;43.90;;;;;;5016324;28;20241;-62
2023/04/16 03:46:56;;;;;;;1.23;1.13;;;19.10;43.90;;;;;;5019543;28;20972;-60
2023/04/16 03:49:21;;;;;;;1.13;1.03;;;19.10;43.90;;;;;;5019361;28;20234;-62
2023/04/16 03:51:47;;;;;;;1.30;1.20;;;19.10;43.90;;;;;;5018866;28;20243;-60
2023/04/16 03:54:12;;;;;;;1.30;1.20;;;19.20;44.00;;;;;;5015717;28;20243;-62
2023/04/16 03:56:41;;;;;;;1.20;1.10;;;19.10;43.90;;;;;;5020396;28;20227;-62
2023/04/16 03:59:06;;;;;;;1.20;1.10;;;19.10;43.90;;;;;;5021390;28;20218;-60
2023/04/16 04:01:32;;;;;;;1.50;1.40;;;19.10;43.90;;;;;;5019461;28;20427;-61
2023/04/16 04:03:57;;;;;;;1.00;0.90;;;19.10;43.90;;;;;;5021598;28;20223;-66
2023/04/16 04:06:23;;;;;;;1.20;1.10;;;19.10;44.00;;;;;;5018941;28;20218;-65
2023/04/16 04:08:49;;;;;;;1.50;1.40;;;19.10;43.90;;;;;;5020393;28;20237;-63
2023/04/16 04:11:15;;;;;;;1.17;1.07;;;19.10;43.90;;;;;;5023308;28;20246;-61
2023/04/16 04:13:40;;;;;;;1.00;0.90;;;19.10;43.90;;;;;;5021608;28;20230;-62
2023/04/16 04:16:06;;;;;;;1.20;1.10;;;19.10;43.90;;;;;;5022269;28;20230;-60
2023/04/16 04:18:31;;;;;;;1.20;1.10;;;19.10;43.90;;;;;;5018910;28;20226;-61
2023/04/16 04:20:57;;;;;;;1.10;1.00;;;19.10;43.90;;;;;;5022763;28;20239;-60
2023/04/16 04:23:23;;;;;;;1.20;1.10;;;19.10;43.90;;;;;;5017750;28;20233;-61
2023/04/16 04:25:48;;;;;;;1.20;1.10;;;19.10;43.90;;;;;;5020536;28;20313;-62
2023/04/16 04:28:14;;;;;;;1.20;1.10;;;19.10;43.90;;;;;;5020398;28;21060;-62
2023/04/16 04:30:40;;;;;;;2.47;1.20;;;19.10;43.90;;;;;;5021957;28;20549;-62
2023/04/16 04:33:05;;;;;;;2.50;1.20;;;19.10;43.90;;;;;;5019900;28;20516;-61
2023/04/16 04:35:32;;;;;;;1.10;1.00;;;19.10;43.90;;;;;;5017398;28;20226;-62
2023/04/16 04:37:57;;;;;;;1.40;1.30;;;19.10;43.90;;;;;;5018867;28;20230;-66
2023/04/16 04:40:23;;;;;;;1.37;1.27;;;19.10;43.90;;;;;;5020099;28;20495;-60
2023/04/16 04:42:48;;;;;;;1.13;1.03;;;19.10;43.90;;;;;;5018185;28;20682;-62
2023/04/16 04:45:14;;;;;;;1.40;1.30;;;19.10;43.90;;;;;;5020114;28;20266;-62
2023/04/16 04:47:39;;;;;;;1.20;1.10;;;19.20;44.00;;;;;;5017198;28;20305;-60
2023/04/16 04:50:05;;;;;;;1.63;1.20;;;19.10;43.90;;;;;;5016094;28;20338;-61
2023/04/16 04:52:31;;;;;;;1.10;1.00;;;19.20;44.00;;;;;;5014505;28;20994;-61
2023/04/16 04:54:56;;;;;;;1.20;1.10;;;19.20;44.00;;;;;;5014102;28;20461;-60
2023/04/16 04:57:22;;;;;;;1.50;1.40;;;19.20;44.00;;;;;;5007434;28;20227;-62
2023/04/16 04:59:48;;;;;;;1.20;1.10;;;19.20;44.00;;;;;;5014961;28;20292;-61
2023/04/16 05:02:13;;;;;;;1.97;1.23;;;19.20;44.00;;;;;;5016545;28;20601;-61
2023/04/16 05:04:39;;;;;;;1.40;1.30;;;19.20;44.00;;;;;;5016395;28;20226;-63
2023/04/16 05:07:05;;;;;;;1.53;1.43;;;19.20;44.00;;;;;;5018111;28;20218;-62
2023/04/16 05:09:30;;;;;;;1.33;1.23;;;19.20;44.00;;;;;;5016169;28;20218;-63
2023/04/16 05:11:56;;;;;;;1.10;1.00;;;19.20;44.00;;;;;;5017610;28;20524;-63
2023/04/16 05:14:22;;;;;;;1.33;1.23;;;19.20;44.00;;;;;;5018907;28;20250;-60
2023/04/16 05:16:47;;;;;;;1.30;1.20;;;19.20;44.00;;;;;;5017407;28;20226;-61
2023/04/16 05:19:13;;;;;;;2.23;1.40;;;19.20;44.00;;;;;;5018935;28;20234;-60
2023/04/16 05:21:38;;;;;;;1.33;1.23;;;19.20;44.00;;;;;;5016489;28;20229;-63
2023/04/16 05:24:05;;;;;;;1.60;1.50;;;19.20;44.00;;;;;;5019690;28;20222;-63
2023/04/16 05:26:30;;;;;;;1.20;1.10;;;19.20;44.00;;;;;;5017045;28;20219;-62
2023/04/16 05:28:55;;;;;;;1.50;1.30;;;19.20;44.00;;;;;;5027952;28;20455;-62
2023/04/16 05:31:21;;;;;;;1.20;1.10;;;19.20;44.00;;;;;;5017269;28;20245;-62
2023/04/16 05:33:46;;;;;;;1.37;1.27;;;19.20;44.00;;;;;;5020664;28;20272;-62
2023/04/16 05:36:12;;;;;;;1.20;1.10;;;19.20;44.00;;;;;;5018472;28;20234;-61
2023/04/16 05:38:37;;;;;;;1.50;1.40;;;19.20;44.70;;;;;;5017213;28;20317;-62
2023/04/16 05:41:03;;;;;;;1.27;1.17;;;19.20;44.00;;;;;;5018459;28;20230;-65
2023/04/16 05:43:28;;;;;;;1.60;1.50;;;19.20;44.00;;;;;;5016804;28;20233;-61
2023/04/16 05:45:54;;;;;;;1.30;1.20;;;19.20;43.90;;;;;;5021074;28;20230;-61
2023/04/16 05:48:19;;;;;;;1.23;1.13;;;19.30;44.10;;;;;;5018300;28;20214;-61
2023/04/16 05:50:45;;;;;;;1.77;1.30;;;19.20;44.00;;;;;;5020678;28;20226;-60
2023/04/16 05:53:12;;;;;;;1.30;1.20;;;19.30;44.10;;;;;;5024234;28;20234;-61
2023/04/16 05:55:38;;;;;;;1.30;1.20;;;19.20;44.00;;;;;;5018659;28;20585;-62
2023/04/16 05:58:04;;;;;;;1.30;1.20;;;19.30;44.10;;;;;;5018856;28;20467;-63
2023/04/16 06:00:33;;;;;;;1.30;1.20;;;19.20;44.00;;;;;;5022075;28;20221;-62
2023/04/16 06:02:58;;;;;;;1.40;1.30;;;19.20;44.00;;;;;;5018952;28;20234;-66
2023/04/16 06:05:25;;;;;;;1.40;1.30;;;19.30;44.10;;;;;;5018808;28;20426;-63
2023/04/16 06:07:51;;;;;;;1.43;1.33;;;19.30;44.10;;;;;;5019808;28;20225;-60
2023/04/16 06:10:17;;;;;;;1.30;1.20;;;19.30;44.10;;;;;;5020678;28;20427;-61
2023/04/16 06:12:42;;;;;;;1.97;1.87;;;19.30;44.10;;;;;;5017183;28;20678;-63
2023/04/16 06:15:08;;;;;;;1.53;1.43;;;19.30;44.10;;;;;;5020649;28;20227;-66
2023/04/16 06:17:34;;;;;;;1.50;1.40;;;19.30;44.10;;;;;;5014736;28;20336;-62
2023/04/16 06:19:59;;;;;;;1.50;1.40;;;19.30;44.10;;;;;;5020253;28;20915;-62
2023/04/16 06:22:25;;;;;;;1.40;1.30;;;19.30;44.10;;;;;;5022488;28;20298;-61
2023/04/16 06:24:52;;;;;;;1.10;1.00;;;19.30;44.00;;;;;;5018553;28;21177;-61
2023/04/16 06:27:17;;;;;;;1.30;1.20;;;19.20;44.00;;;;;;5017040;28;20226;-62
2023/04/16 06:29:43;;;;;;;1.47;1.37;;;19.20;44.00;;;;;;5012765;28;20438;-61
2023/04/16 06:32:09;;;;;;;1.47;1.37;;;19.20;44.00;;;;;;5013417;28;20747;-62
2023/04/16 06:34:34;;;;;;;1.50;1.40;;;19.20;44.00;;;;;;5010520;28;22098;-61
2023/04/16 06:37:00;;;;;;;1.40;1.30;;;19.20;44.00;;;;;;5014314;28;20310;-63
2023/04/16 06:39:26;;;;;;;1.40;1.30;;;19.30;44.10;;;;;;5011928;28;20227;-62
2023/04/16 06:41:51;;;;;;;1.20;1.10;;;19.20;44.00;;;;;;5011468;28;20261;-60
2023/04/16 06:44:17;;;;;;;1.30;1.20;;;19.30;44.00;;;;;;5014934;28;21051;-63
2023/04/16 06:46:42;;;;;;;1.30;1.20;;;19.30;44.10;;;;;;5017758;28;20264;-65
2023/04/16 06:49:08;;;;;;;1.40;1.30;;;19.20;43.90;;;;;;5016754;28;20226;-61
2023/04/16 06:51:34;;;;;;;1.37;1.27;;;19.30;44.10;;;;;;5017025;28;20729;-61
2023/04/16 06:53:59;;;;;;;1.33;1.23;;;19.30;44.10;;;;;;5014253;28;20223;-61
2023/04/16 06:56:25;;;;;;;1.87;1.77;;;19.20;44.00;;;;;;5018664;28;20347;-61
2023/04/16 06:58:50;;;;;;;1.70;1.60;;;19.20;44.00;;;;;;5018402;28;20223;-62
2023/04/16 07:01:17;;;;;;;1.40;1.30;;;19.30;44.10;;;;;;5011512;28;20699;-61
2023/04/16 07:03:43;;;;;;;1.50;1.40;;;19.30;44.10;;;;;;5010205;28;20226;-60
2023/04/16 07:06:09;;;;;;;1.40;1.30;;;19.30;44.10;;;;;;5018663;28;20980;-65
2023/04/16 07:08:34;;;;;;;1.50;1.40;;;19.30;44.10;;;;;;5007103;28;20636;-66
2023/04/16 07:11:00;;;;;;;1.37;1.27;;;19.30;44.10;;;;;;5024352;28;20443;-62
2023/04/16 07:13:26;;;;;;;1.70;1.60;;;19.30;44.10;;;;;;5023212;28;20291;-60
2023/04/16 07:15:52;;;;;;;1.80;1.70;;;19.40;44.20;;;;;;5014229;28;20298;-61
2023/04/16 07:18:17;;;;;;;1.37;1.27;;;19.40;44.90;;;;;;5021935;28;20439;-60
2023/04/16 07:20:43;;;;;;;1.50;1.40;;;19.40;44.10;;;;;;5020980;28;20333;-61
2023/04/16 07:23:08;;;;;;;1.53;1.43;;;19.40;44.20;;;;;;5017337;28;20298;-61
2023/04/16 07:25:34;;;;;;;1.53;1.30;;;19.40;44.10;;;;;;5010104;28;20840;-62
2023/04/16 07:28:00;;;;;;;1.27;1.17;;;19.40;44.20;;;;;;5012811;28;20302;-61
2023/04/16 07:30:31;;;;;;;2.10;1.57;;;19.40;44.20;;;;;;5014585;28;20230;-60
2023/04/16 07:32:57;;;;;;;1.50;1.40;;;19.40;44.20;;;;;;5010169;28;20594;-63
2023/04/16 07:35:22;;;;;;;1.50;1.40;;;19.40;44.20;;;;;;5018051;28;20966;-60
2023/04/16 07:37:48;;;;;;;1.60;1.50;;;19.40;44.10;;;;;;5016397;28;20263;-64
2023/04/16 07:40:13;;;;;;;2.03;1.60;;;19.40;44.20;;;;;;5017025;28;20226;-62
2023/04/16 07:42:39;;;;;;;1.53;1.43;;;19.40;44.20;;;;;;5016809;28;20722;-60
2023/04/16 07:45:05;;;;;;;1.50;1.40;;;19.40;44.20;;;;;;5013396;28;20223;-65
2023/04/16 07:47:31;;;;;;;2.13;1.83;;;19.40;44.20;;;;;;5005451;28;20230;-62
2023/04/16 07:49:56;;;;;;;1.53;1.43;;;19.40;44.20;;;;;;5012193;28;20462;-63
2023/04/16 07:52:22;;;;;;;1.60;1.50;;;19.40;44.20;;;;;;5017592;28;20598;-60
2023/04/16 07:54:47;;;;;;;1.57;1.47;;;19.40;44.20;;;;;;5020586;28;20232;-63
2023/04/16 07:57:13;;;;;;;1.80;1.70;;;19.40;44.20;;;;;;5012091;28;20246;-60
2023/04/16 07:59:38;;;;;;;1.70;1.60;;;19.40;44.20;;;;;;5012788;28;20678;-62
2023/04/16 08:02:05;;;;;;;1.80;1.70;;;19.30;44.10;;;;;;5015554;28;20223;-62
2023/04/16 08:04:30;;;;;;;1.80;1.70;;;19.40;44.20;;;;;;5011432;28;20603;-61
2023/04/16 08:06:56;;;;;;;1.57;1.47;;;19.40;44.10;;;;;;5010830;28;20461;-60
2023/04/16 08:09:25;;;;;;;1.60;1.50;;;19.40;44.20;;;;;;5016903;28;20253;-61
2023/04/16 08:11:50;;;;;;;1.60;1.50;;;19.30;44.10;;;;;;5013690;28;20231;-62
2023/04/16 08:14:16;;;;;;;1.60;1.50;;;19.30;44.10;;;;;;5016697;28;20953;-60
2023/04/16 08:16:42;;;;;;;1.80;1.70;;;19.30;44.10;;;;;;5016751;28;20230;-61
2023/04/16 08:19:07;;;;;;;1.67;1.57;;;19.30;44.00;;;;;;5018208;28;20229;-61
2023/04/16 08:21:33;;;;;;;1.90;1.80;;;19.30;44.10;;;;;;5016341;28;20326;-61
2023/04/16 08:23:58;;;;;;;1.93;1.83;;;19.30;44.10;;;;;;5019604;28;20292;-62
2023/04/16 08:26:24;;;;;;;1.80;1.70;;;19.30;44.10;;;;;;5013588;28;20254;-60
2023/04/16 08:28:49;;;;;;;1.60;1.50;;;19.30;44.80;;;;;;5013572;28;20763;-60
2023/04/16 08:31:15;;;;;;;1.90;1.70;;;19.30;44.10;;;;;;5014076;28;20586;-60
2023/04/16 08:33:41;;;;;;;2.27;2.00;;;19.30;44.10;;;;;;5018033;28;20679;-61
2023/04/16 08:36:06;;;;;;;2.60;1.90;;;19.30;44.10;;;;;;5016702;28;20218;-61
2023/04/16 08:38:32;;;;;;;2.37;2.20;;;19.30;44.10;;;;;;5009735;28;20225;-62
2023/04/16 08:41:04;;;;;;;2.10;2.00;;;19.30;44.10;;;;;;5015555;28;20277;-62
2023/04/16 08:43:33;;;;;;;1.90;1.80;;;19.30;44.10;;;;;;5019089;28;20318;-63
2023/04/16 08:46:00;;;;;;;1.83;1.73;;;19.30;44.10;;;;;;5022488;28;20418;-63
2023/04/16 08:48:31;;;;;;;1.87;1.73;;;19.30;44.10;;;;;;5020159;28;20447;-63
2023/04/16 08:50:58;;;;;;;4.43;2.10;;;19.30;44.10;;;;;;5019837;28;20418;-60
2023/04/16 08:53:51;;;;;;;2.43;2.00;;;19.30;44.10;;;;;;5029431;28;20863;-62
2023/04/16 08:56:20;;;;;;;2.07;1.97;;;19.30;44.10;;;;;;5020977;28;20824;-61
2023/04/16 08:58:47;;;;;;;2.40;2.20;;;19.30;44.10;;;;;;5013845;28;20496;-61
2023/04/16 09:01:14;;;;;;;2.63;2.47;;;19.30;44.10;;;;;;5021681;28;20453;-61
2023/04/16 09:03:40;;;;;;;2.17;1.97;;;19.30;44.10;;;;;;5021198;28;20456;-61
2023/04/16 09:06:06;;;;;;;2.10;1.90;;;19.30;44.10;;;;;;5020727;28;21595;-62
2023/04/16 09:08:34;;;;;;;1.87;1.77;;;19.30;44.80;;;;;;5020490;28;20446;-62
2023/04/16 09:11:00;;;;;;;2.17;2.07;;;19.30;44.10;;;;;;5019498;28;20492;-63
2023/04/16 09:13:25;;;;;;;2.30;2.10;;;19.30;44.10;;;;;;5015722;28;20503;-66
2023/04/16 09:15:55;;;;;;;2.23;2.10;;;19.30;44.10;;;;;;5012627;28;20301;-65
2023/04/16 09:18:21;;;;;;;2.30;2.20;;;19.30;44.10;;;;;;5016167;28;20223;-61
2023/04/16 09:20:48;;;;;;;2.27;2.07;;;19.30;44.10;;;;;;5006937;28;20505;-62
2023/04/16 09:23:14;;;;;;;2.37;2.27;;;19.20;44.10;;;;;;5013458;28;20231;-63
2023/04/16 09:25:39;;;;;;;2.60;2.13;;;19.30;44.10;;;;;;5010773;28;20491;-63
2023/04/16 09:28:05;;;;;;;2.00;1.90;;;19.30;44.10;;;;;;5007095;28;20222;-64
2023/04/16 09:30:30;;;;;;;1.90;1.80;;;19.20;44.70;;;;;;5003528;28;20817;-64
2023/04/16 09:33:21;;;;;;;2.47;2.27;;;19.20;44.00;;;;;;4997237;28;20246;-63
2023/04/16 09:35:49;;;;;;;2.40;2.20;;;19.20;44.00;;;;;;5000381;28;20219;-62
2023/04/16 09:38:15;;;;;;;2.63;2.43;;;19.30;44.10;;;;;;5001368;28;20479;-61
2023/04/16 09:40:41;;;;;;;2.20;1.90;;;19.30;44.10;;;;;;5004149;28;21014;-64
2023/04/16 09:43:17;;;;;;;2.47;2.27;;;19.30;44.10;;;;;;4999394;28;20439;-64
2023/04/16 09:45:50;;;;;;;5.90;2.90;;;19.20;44.00;;;;;;5008525;28;20218;-66
2023/04/16 09:48:30;;;;;;;3.97;2.93;;;19.30;44.10;;;;;;5009818;28;21297;-66
2023/04/16 09:50:57;;;;;;;10.23;3.77;;;19.30;44.10;;;;;;5005997;28;20515;-63
2023/04/16 09:53:24;;;;;;;6.27;3.10;;;19.30;44.10;;;;;;5003606;28;20443;-71
2023/04/16 09:55:50;;;;;;;336.53;26.33;;;19.30;44.10;;;;;;5008277;28;21004;-74
2023/04/16 09:58:18;;;;;;;750.67;66.70;;;19.30;44.10;;;;;;5006515;28;21025;-68
2023/04/16 10:00:44;;;;;;;433.47;38.63;;;19.30;44.10;;;;;;5004176;28;20222;-67
2023/04/16 10:03:10;;;;;;;298.50;34.77;;;19.40;44.20;;;;;;5005109;28;20439;-75
2023/04/16 10:05:35;;;;;;;221.37;26.80;;;19.40;44.20;;;;;;5004459;28;20215;-62
2023/04/16 10:08:01;;;;;;;173.53;23.40;;;19.50;44.20;;;;;;5006046;28;20215;-64
2023/04/16 10:10:27;;;;;;;130.73;20.60;;;19.50;44.20;;;;;;5009313;28;20223;-64
2023/04/16 10:12:57;;;;;;;124.70;18.40;;;19.50;44.70;;;;;;5009349;28;20243;-68
2023/04/16 10:15:23;;;;;;;109.97;17.77;;;19.50;44.20;;;;;;5014569;28;20456;-66
2023/04/16 10:17:49;;;;;;;40.93;9.50;;;19.50;44.20;;;;;;5013125;28;20442;-63
2023/04/16 10:20:16;;;;;;;88.50;15.80;;;19.50;44.10;;;;;;5013950;28;20298;-66
2023/04/16 10:22:42;;;;;;;77.67;13.50;;;19.60;44.00;;;;;;5009173;28;20471;-65
2023/04/16 10:25:10;;;;;;;90.60;13.70;;;19.50;43.90;;;;;;5013311;28;20459;-64
2023/04/16 10:27:36;;;;;;;83.93;13.70;;;19.60;44.00;;;;;;5012122;28;20223;-63
2023/04/16 10:30:02;;;;;;;65.97;12.43;;;19.50;44.00;;;;;;5015656;28;20430;-67
2023/04/16 10:32:29;;;;;;;51.13;12.77;;;19.50;44.00;;;;;;5016715;28;20561;-64
2023/04/16 10:34:55;;;;;;;54.80;12.80;;;19.60;44.30;;;;;;5016511;28;21135;-63
2023/04/16 10:37:31;;;;;;;74.43;11.93;;;19.60;44.90;;;;;;5012673;28;20461;-67
2023/04/16 10:40:00;;;;;;;41.37;11.13;;;19.60;44.30;;;;;;5014990;28;20254;-67
2023/04/16 10:42:26;;;;;;;35.33;9.40;;;19.60;44.30;;;;;;5011265;28;20431;-62
2023/04/16 10:44:51;;;;;;;40.17;10.60;;;19.60;44.20;;;;;;5010741;28;20478;-66
2023/04/16 10:47:17;;;;;;;23.27;9.20;;;19.60;44.20;;;;;;5009003;28;20570;-69
2023/04/16 10:49:42;;;;;;;28.30;8.87;;;19.60;44.20;;;;;;5012375;28;20223;-65
2023/04/16 10:52:13;;;;;;;39.13;9.03;;;19.60;44.20;;;;;;5015426;28;20588;-65
2023/04/16 10:54:39;;;;;;;39.43;9.03;;;19.60;44.20;;;;;;5009611;28;20223;-66
2023/04/16 10:57:08;;;;;;;37.97;9.53;;;19.60;44.90;;;;;;5013091;28;20445;-67
2023/04/16 10:59:36;;;;;;;26.63;8.70;;;19.60;44.20;;;;;;5009937;28;21328;-65
2023/04/16 11:02:07;;;;;;;34.27;9.47;;;19.60;43.90;;;;;;5008134;28;20472;-70
2023/04/16 11:04:37;;;;;;;19.07;8.03;;;19.60;43.90;;;;;;5007432;28;20446;-68
2023/04/16 11:07:18;;;;;;;18.40;10.70;;;19.60;43.90;;;;;;5008434;28;20475;-67
2023/04/16 11:10:00;;;;;;;18.43;8.93;;;19.60;43.60;;;;;;5017884;28;20550;-70
2023/04/16 11:12:36;;;;;;;18.50;10.47;;;19.60;43.40;;;;;;5014529;28;20470;-63
2023/04/16 11:15:03;;;;;;;16.37;7.40;;;19.70;43.20;;;;;;5018680;28;20456;-70
2023/04/16 11:17:42;;;;;;;13.70;7.03;;;19.70;43.80;;;;;;5014487;28;20478;-71
2023/04/16 11:20:16;;;;;;;21.83;7.70;;;19.70;43.00;;;;;;5009923;28;20477;-67
2023/04/16 11:22:44;;;;;;;14.93;7.80;;;19.70;43.10;;;;;;5011707;28;20746;-65
2023/04/16 11:25:10;;;;;;;13.10;7.03;;;19.70;43.20;;;;;;5010614;28;20495;-65
2023/04/16 11:27:35;;;;;;;13.27;6.53;;;19.60;43.20;;;;;;5010324;28;20480;-65
2023/04/16 11:30:03;;;;;;;18.93;7.87;;;19.60;43.30;;;;;;5005685;28;20469;-68
2023/04/16 11:32:36;;;;;;;18.37;7.00;;;19.60;43.30;;;;;;5011083;28;20258;-71
2023/04/16 11:35:04;;;;;;;13.80;5.90;;;19.60;43.40;;;;;;5008392;28;20426;-71
2023/04/16 11:37:34;;;;;;;17.90;7.13;;;19.60;43.60;;;;;;5013676;28;20473;-70
2023/04/16 11:40:00;;;;;;;9.20;7.33;;;19.60;43.50;;;;;;5011143;28;20443;-65
2023/04/16 11:42:28;;;;;;;15.47;6.40;;;19.60;43.60;;;;;;5006703;28;20426;-64
2023/04/16 11:44:56;;;;;;;7.10;6.33;;;19.60;43.70;;;;;;5008862;28;20438;-71
2023/04/16 11:47:24;;;;;;;15.67;6.80;;;19.60;43.70;;;;;;5012394;28;20532;-65
2023/04/16 11:49:50;;;;;;;13.63;6.70;;;19.60;43.70;;;;;;5016359;28;20807;-69
2023/04/16 11:52:26;;;;;;;14.63;6.90;;;19.60;43.70;;;;;;5005922;28;20468;-66
2023/04/16 11:54:52;;;;;;;11.63;6.47;;;19.60;43.70;;;;;;5007666;28;20679;-70
2023/04/16 11:57:25;;;;;;;13.50;6.40;;;19.60;43.80;;;;;;5007990;28;20538;-69
2023/04/16 11:59:51;;;;;;;10.30;6.03;;;19.60;43.80;;;;;;5012489;28;20223;-65
2023/04/16 12:02:16;;;;;;;13.83;6.43;;;19.60;43.80;;;;;;5013513;28;20530;-65
2023/04/16 12:04:42;;;;;;;11.60;6.87;;;19.60;43.80;;;;;;5013218;28;20223;-71
2023/04/16 12:07:12;;;;;;;15.10;6.23;;;19.60;44.60;;;;;;5007794;28;20221;-63
2023/04/16 12:09:40;;;;;;;17.80;10.83;;;19.60;43.90;;;;;;5011767;28;20277;-71
2023/04/16 12:12:29;;;;;;;18.63;8.33;;;19.60;43.60;;;;;;5006991;28;20492;-66
2023/04/16 12:14:56;;;;;;;14.60;7.27;;;19.60;43.50;;;;;;5011755;28;20456;-66
2023/04/16 12:17:22;;;;;;;16.53;10.40;;;19.60;43.40;;;;;;5011166;28;20422;-65
2023/04/16 12:19:51;;;;;;;17.43;7.87;;;19.60;43.10;;;;;;5009723;28;20478;-66
2023/04/16 12:22:25;;;;;;;24.73;10.63;;;19.60;43.00;;;;;;5007026;28;20548;-72
2023/04/16 12:24:55;;;;;;;17.80;8.70;;;19.60;42.90;;;;;;5010446;28;20427;-70
2023/04/16 12:27:21;;;;;;;26.60;9.77;;;19.60;42.80;;;;;;5010310;28;20481;-65
2023/04/16 12:30:06;;;;;;;13.13;8.00;;;19.60;42.70;;;;;;5012049;28;20494;-66
2023/04/16 12:32:31;;;;;;;15.20;9.20;;;19.60;42.70;;;;;;5013125;28;20219;-69
2023/04/16 12:34:57;;;;;;;19.70;9.50;;;19.60;42.60;;;;;;5016553;28;21088;-67
2023/04/16 12:37:22;;;;;;;12.53;9.37;;;19.60;42.60;;;;;;5010943;28;20240;-66
2023/04/16 12:39:48;;;;;;;18.30;7.70;;;19.60;42.60;;;;;;5013768;28;20223;-66